首页
METAR-TAF:

METAR-TAF

机场 :

伊瓜苏, 巴拉那州, 巴西

纬度: 25-31S, 经度: 054-35W, 海拔: 180米

当前天气观测

该预报发布于16分钟前的04:00 UTC
风速2节,风向西南
温度 11°C
湿度 94%
气压 1025 hPa
能见度10公里或以上
多云层高于500英尺
阴天层高于1500英尺

METAR: SBFI 150400Z 23002KT 9999 BKN005 OVC015 11/10 Q1025

时间: 01:16 (04:16 UTC)

预报

该预报发布于7小时和16分钟前的21:00 UTC
预报有效从15日的 00点(UTC)到 15日的 24点(UTC)
风速4节,风向西南
能見度: 5000
阴天层高于500英尺
轻雾
几率 40%
从 15日的 08点(UTC)到 15日的 12点(UTC)
能見度: 0900
阴天层高于500英尺
成为
从 15日的 13点(UTC)到 15日的 15点(UTC)
能见度10公里或以上
多云层高于1500英尺

TAF: SBFI 142100Z 1500/1524 22004KT 5000 BR OVC005 TN08/1509Z TX12/1518Z PROB40 1508/1512 0900 FG OVC005 BECMG 1513/1515 9999 BKN015 RMK PBH

超过4000个机场的气象观测和天气预报(METAR&TAF报告)。

可查询的气象台以黄色和红色小点在地图上表示。

将鼠标移到小点上方,可查看气象台名称。

然后点击查看天气观测和预报。

如需切换地图:点击带黑十字的绿色按钮放大地图;点击带横线的绿色按钮缩小地图;或者点击绿色箭头查看邻近地区的地图。


METAR-TAF: